createdAt,value
2019-02-02T00:00:04.803Z,54.73
2019-02-02T00:02:42.325Z,60.30
2019-02-02T00:05:19.874Z,64.17
2019-02-02T00:07:57.417Z,61.20
2019-02-02T00:10:34.954Z,60.73
2019-02-02T00:13:12.504Z,57.27
2019-02-02T00:15:50.029Z,58.63
2019-02-02T00:18:27.709Z,60.43
2019-02-02T00:21:05.228Z,58.83
2019-02-02T00:23:42.780Z,62.03
2019-02-02T00:26:20.317Z,63.30
2019-02-02T00:28:57.871Z,61.97
2019-02-02T00:31:35.389Z,63.83
2019-02-02T00:34:12.943Z,59.63
2019-02-02T00:36:50.455Z,60.67
2019-02-02T00:39:27.974Z,64.83
2019-02-02T00:42:05.485Z,62.70
2019-02-02T00:44:43.036Z,63.50
2019-02-02T00:47:20.562Z,62.40
2019-02-02T00:49:58.081Z,62.17
2019-02-02T00:52:35.609Z,62.50
2019-02-02T00:55:13.303Z,69.50
2019-02-02T00:57:54.125Z,65.13
2019-02-02T01:00:28.383Z,65.63
2019-02-02T01:03:05.901Z,62.60
2019-02-02T01:05:43.434Z,61.87
2019-02-02T01:08:20.949Z,57.03
2019-02-02T01:10:58.493Z,66.77
2019-02-02T01:13:36.034Z,59.43
2019-02-02T01:16:13.543Z,62.67
2019-02-02T01:18:51.084Z,58.07
2019-02-02T01:21:28.594Z,58.77
2019-02-02T01:24:06.153Z,56.07
2019-02-02T01:26:43.678Z,59.73
2019-02-02T01:29:21.238Z,63.37
2019-02-02T01:31:58.759Z,61.20
2019-02-02T01:34:36.315Z,59.63
2019-02-02T01:37:13.820Z,63.50
2019-02-02T01:39:51.339Z,56.97
2019-02-02T01:42:28.841Z,56.53
2019-02-02T01:45:07.189Z,61.43
2019-02-02T01:47:44.695Z,61.03
2019-02-02T01:50:25.649Z,63.77
2019-02-02T01:53:03.162Z,58.03
2019-02-02T01:55:40.696Z,65.37
2019-02-02T01:58:18.207Z,68.43
2019-02-02T02:00:55.807Z,61.90
2019-02-02T02:03:33.249Z,66.27
2019-02-02T02:06:10.765Z,60.53
2019-02-02T02:08:48.278Z,58.80
2019-02-02T02:11:25.814Z,58.00
2019-02-02T02:14:03.364Z,62.00
2019-02-02T02:16:40.875Z,56.83
2019-02-02T02:19:18.405Z,64.80
2019-02-02T02:21:55.927Z,61.20
2019-02-02T02:24:33.469Z,54.30
2019-02-02T02:27:10.985Z,58.87
2019-02-02T02:29:48.529Z,55.70
2019-02-02T02:32:26.053Z,59.43
2019-02-02T02:35:03.589Z,67.37
2019-02-02T02:37:41.095Z,59.43
2019-02-02T02:40:21.795Z,58.80
2019-02-02T02:42:59.319Z,55.03
2019-02-02T02:45:36.861Z,61.47
2019-02-02T02:48:14.376Z,65.20
2019-02-02T02:50:51.898Z,55.77
2019-02-02T02:53:29.426Z,58.97
2019-02-02T02:56:06.982Z,60.17
2019-02-02T02:58:44.519Z,56.10
2019-02-02T03:01:22.046Z,62.90
2019-02-02T03:03:59.553Z,63.83
2019-02-02T03:06:37.103Z,63.23
2019-02-02T03:09:14.597Z,65.47
2019-02-02T03:11:52.144Z,58.83
2019-02-02T03:14:29.697Z,60.63
2019-02-02T03:17:07.198Z,56.80
2019-02-02T03:19:44.723Z,59.93
2019-02-02T03:22:22.263Z,59.37
2019-02-02T03:24:59.805Z,67.93
2019-02-02T03:27:37.336Z,57.40
2019-02-02T03:30:18.120Z,58.20
2019-02-02T03:32:55.650Z,65.37
2019-02-02T03:35:33.192Z,58.87
2019-02-02T03:38:10.691Z,55.77
2019-02-02T03:40:48.215Z,53.17
2019-02-02T03:43:25.733Z,61.70
2019-02-02T03:46:03.268Z,55.23
2019-02-02T03:48:40.758Z,61.77
2019-02-02T03:51:18.283Z,61.43
2019-02-02T03:54:07.885Z,62.13
2019-02-02T03:56:33.330Z,68.83
2019-02-02T03:59:10.857Z,56.43
2019-02-02T04:01:48.387Z,64.37
2019-02-02T04:04:25.898Z,58.53
2019-02-02T04:07:03.450Z,60.13
2019-02-02T04:09:40.978Z,59.90
2019-02-02T04:12:18.496Z,57.40
2019-02-02T04:14:56.063Z,58.27
2019-02-02T04:17:33.566Z,58.07
2019-02-02T04:20:15.361Z,53.37
2019-02-02T04:22:53.070Z,57.93
2019-02-02T04:25:30.611Z,59.07
2019-02-02T04:28:08.119Z,65.20
2019-02-02T04:30:45.640Z,56.07
2019-02-02T04:33:23.145Z,55.17
2019-02-02T04:36:00.678Z,61.30
2019-02-02T04:38:38.183Z,64.17
2019-02-02T04:41:19.344Z,56.07
2019-02-02T04:43:56.886Z,57.77
2019-02-02T04:46:34.450Z,59.23
2019-02-02T04:49:11.975Z,60.20
2019-02-02T04:51:49.508Z,58.90
2019-02-02T04:54:27.020Z,60.00
2019-02-02T04:57:04.562Z,67.97
2019-02-02T04:59:42.060Z,66.90
2019-02-02T05:02:19.601Z,59.77
2019-02-02T05:04:57.113Z,55.37
2019-02-02T05:07:34.652Z,60.73
2019-02-02T05:10:14.838Z,54.67
2019-02-02T05:12:52.462Z,69.53
2019-02-02T05:15:30.003Z,66.00
2019-02-02T05:18:07.504Z,63.93
2019-02-02T05:20:45.057Z,57.50
2019-02-02T05:23:22.604Z,70.13
2019-02-02T05:26:00.134Z,58.53
2019-02-02T05:28:37.659Z,65.13
2019-02-02T05:31:15.180Z,60.70
2019-02-02T05:33:53.775Z,64.33
2019-02-02T05:36:30.254Z,64.07
2019-02-02T05:39:10.407Z,77.60
2019-02-02T05:41:47.944Z,67.70
2019-02-02T05:44:25.458Z,59.53
2019-02-02T05:47:02.978Z,57.00
2019-02-02T05:49:40.500Z,68.17
2019-02-02T05:52:18.010Z,76.60
2019-02-02T05:54:55.543Z,74.07
2019-02-02T05:57:33.101Z,78.03
2019-02-02T06:00:15.806Z,72.53
2019-02-02T06:02:53.345Z,70.93
2019-02-02T06:05:30.855Z,62.13
2019-02-02T06:08:08.398Z,62.80
2019-02-02T06:10:45.918Z,65.73
2019-02-02T06:13:23.496Z,70.37
2019-02-02T06:16:01.019Z,67.73
2019-02-02T06:18:38.546Z,63.20
2019-02-02T06:21:16.091Z,67.43
2019-02-02T06:23:53.622Z,76.77
2019-02-02T06:26:31.138Z,65.83
2019-02-02T06:29:08.702Z,68.00
2019-02-02T06:31:46.234Z,73.60
2019-02-02T06:34:23.754Z,63.60
2019-02-02T06:37:01.299Z,72.47
2019-02-02T06:39:38.846Z,73.37
2019-02-02T06:42:16.363Z,72.57
2019-02-02T06:44:54.222Z,73.07
2019-02-02T06:47:32.896Z,74.70
2019-02-02T06:50:12.845Z,72.23
2019-02-02T06:52:50.375Z,66.97
2019-02-02T06:55:27.870Z,65.80
2019-02-02T06:58:05.840Z,70.00
2019-02-02T07:00:43.358Z,82.93
2019-02-02T07:03:20.911Z,72.37
2019-02-02T07:05:58.439Z,68.77
2019-02-02T07:08:35.977Z,70.30
2019-02-02T07:11:13.876Z,72.87
2019-02-02T07:13:51.403Z,65.40
2019-02-02T07:16:28.980Z,74.50
2019-02-02T07:19:06.485Z,72.07
2019-02-02T07:21:45.025Z,76.97
2019-02-02T07:24:22.565Z,67.00
2019-02-02T07:27:00.101Z,76.10
2019-02-02T07:29:37.621Z,68.20
2019-02-02T07:32:15.137Z,76.67
2019-02-02T07:34:52.641Z,75.73
2019-02-02T07:37:30.158Z,84.73
2019-02-02T07:40:09.053Z,73.00
2019-02-02T07:42:46.608Z,81.70
2019-02-02T07:45:27.552Z,72.40
2019-02-02T07:48:05.074Z,73.93
2019-02-02T07:50:42.598Z,71.90
2019-02-02T07:53:20.159Z,72.63
2019-02-02T07:55:57.660Z,75.00
2019-02-02T07:58:35.203Z,72.70
2019-02-02T08:01:12.742Z,77.47
2019-02-02T08:03:50.278Z,73.40
2019-02-02T08:06:27.796Z,75.07
2019-02-02T08:09:06.061Z,77.10
2019-02-02T08:11:43.594Z,77.90
2019-02-02T08:14:21.090Z,65.70
2019-02-02T08:16:58.634Z,70.30
2019-02-02T08:19:36.166Z,72.00
2019-02-02T08:22:13.701Z,68.27
2019-02-02T08:24:51.239Z,79.00
2019-02-02T08:27:28.792Z,76.63
2019-02-02T08:30:07.323Z,73.57
2019-02-02T08:32:44.898Z,74.67
2019-02-02T08:35:22.420Z,84.93
2019-02-02T08:37:59.948Z,80.90
2019-02-02T08:40:55.710Z,82.87
2019-02-02T08:43:33.958Z,79.63
2019-02-02T08:46:12.686Z,83.47
2019-02-02T08:48:50.217Z,88.00
2019-02-02T08:51:27.729Z,90.37
2019-02-02T08:54:05.318Z,98.43
2019-02-02T08:56:42.812Z,92.07
2019-02-02T08:59:20.337Z,96.23
2019-02-02T09:01:57.856Z,82.23
2019-02-02T09:04:35.452Z,89.83
2019-02-02T09:07:12.962Z,75.60
2019-02-02T09:09:50.465Z,83.77
2019-02-02T09:12:28.005Z,81.67
2019-02-02T09:15:05.537Z,101.23
2019-02-02T09:17:43.085Z,103.37
2019-02-02T09:20:20.633Z,84.37
2019-02-02T09:23:04.235Z,112.17
2019-02-02T09:25:35.747Z,96.33
2019-02-02T09:28:13.297Z,106.03
2019-02-02T09:30:50.833Z,94.13
2019-02-02T09:33:28.399Z,99.30
2019-02-02T09:36:05.915Z,109.07
2019-02-02T09:38:44.511Z,108.90
2019-02-02T09:41:22.039Z,123.13
2019-02-02T09:43:59.610Z,114.33
2019-02-02T09:46:37.134Z,106.03
2019-02-02T09:49:14.704Z,103.60
2019-02-02T09:51:52.518Z,94.43
2019-02-02T09:54:30.129Z,100.87
2019-02-02T09:57:07.677Z,111.83
2019-02-02T09:59:45.238Z,115.70
2019-02-02T10:02:22.760Z,94.10
2019-02-02T10:05:00.362Z,108.77
2019-02-02T10:07:37.852Z,106.33
2019-02-02T10:10:22.482Z,89.50
2019-02-02T10:12:59.961Z,82.83
2019-02-02T10:15:37.517Z,93.13
2019-02-02T10:18:15.017Z,102.33
2019-02-02T10:21:03.326Z,103.80
2019-02-02T10:23:30.113Z,95.20
2019-02-02T10:26:07.627Z,105.27
2019-02-02T10:28:45.165Z,97.93
2019-02-02T10:31:22.679Z,88.40
2019-02-02T10:34:00.213Z,86.47
2019-02-02T10:36:37.750Z,99.37
2019-02-02T10:39:15.263Z,97.47
2019-02-02T10:41:52.790Z,133.80
2019-02-02T10:44:31.195Z,109.63
2019-02-02T10:47:08.685Z,131.63
2019-02-02T10:49:46.236Z,115.93
2019-02-02T10:52:23.764Z,110.37
2019-02-02T10:55:01.298Z,131.47
2019-02-02T10:57:39.696Z,132.30
2019-02-02T11:01:12.337Z,124.10
2019-02-02T11:03:49.864Z,101.90
2019-02-02T11:06:27.405Z,135.20
2019-02-02T11:09:04.930Z,114.90
2019-02-02T11:11:42.415Z,129.17
2019-02-02T11:14:20.001Z,149.70
2019-02-02T11:16:57.507Z,150.40
2019-02-02T11:19:35.587Z,123.53
2019-02-02T11:22:13.010Z,130.33
2019-02-02T11:24:50.556Z,117.10
2019-02-02T11:27:28.119Z,134.87
2019-02-02T11:30:06.315Z,123.53
2019-02-02T11:32:43.824Z,121.73
2019-02-02T11:35:21.377Z,118.43
2019-02-02T11:37:58.929Z,125.83
2019-02-02T11:40:37.275Z,130.07
2019-02-02T11:43:14.802Z,145.83
2019-02-02T11:45:52.456Z,136.80
2019-02-02T11:48:30.011Z,161.13
2019-02-02T11:51:07.537Z,126.80
2019-02-02T11:53:45.069Z,134.10
2019-02-02T11:56:22.621Z,110.60
2019-02-02T11:59:00.158Z,129.53
2019-02-02T12:01:37.667Z,133.03
2019-02-02T12:04:15.258Z,135.07
2019-02-02T12:06:52.977Z,129.63
2019-02-02T12:09:30.404Z,152.13
2019-02-02T12:12:07.925Z,144.57
2019-02-02T12:14:45.521Z,156.53
2019-02-02T12:17:23.076Z,147.30
2019-02-02T12:20:00.621Z,140.47
2019-02-02T12:22:38.153Z,129.77
2019-02-02T12:25:15.715Z,133.40
2019-02-02T12:27:53.209Z,130.93
2019-02-02T12:30:36.689Z,121.63
2019-02-02T12:33:14.202Z,122.53
2019-02-02T12:35:51.747Z,104.83
2019-02-02T12:38:29.258Z,115.73
2019-02-02T12:41:06.846Z,119.33
2019-02-02T12:43:44.389Z,138.03
2019-02-02T12:46:21.928Z,116.53
2019-02-02T12:48:59.480Z,112.67
2019-02-02T12:51:37.026Z,116.77
2019-02-02T12:54:14.592Z,115.07
2019-02-02T12:56:52.154Z,112.00
2019-02-02T12:59:29.721Z,100.33
2019-02-02T13:02:07.218Z,127.20
2019-02-02T13:04:44.745Z,135.70
2019-02-02T13:07:22.280Z,149.80
2019-02-02T13:09:59.867Z,133.07
2019-02-02T13:12:37.430Z,130.47
2019-02-02T13:15:14.944Z,102.33
2019-02-02T13:17:52.479Z,94.63
2019-02-02T13:20:30.098Z,113.23
2019-02-02T13:23:07.605Z,122.10
2019-02-02T13:25:45.182Z,122.87
2019-02-02T13:28:22.694Z,132.33
2019-02-02T13:31:00.229Z,128.57
2019-02-02T13:33:37.724Z,106.60
2019-02-02T13:36:15.262Z,129.57
2019-02-02T13:38:52.758Z,95.67
2019-02-02T13:41:30.281Z,111.77
2019-02-02T13:44:07.792Z,110.40
2019-02-02T13:46:45.327Z,125.80
2019-02-02T13:49:22.865Z,137.23
2019-02-02T13:52:00.390Z,132.80
2019-02-02T13:54:37.932Z,139.13
2019-02-02T13:57:15.442Z,133.23
2019-02-02T13:59:52.982Z,105.53
2019-02-02T14:02:30.506Z,123.80
2019-02-02T14:05:09.829Z,119.93
2019-02-02T14:07:47.352Z,121.83
2019-02-02T14:10:27.721Z,138.47
2019-02-02T14:13:05.237Z,145.67
2019-02-02T14:15:42.783Z,142.80
2019-02-02T14:18:20.280Z,148.13
2019-02-02T14:20:57.833Z,135.43
2019-02-02T14:23:35.373Z,151.80
2019-02-02T14:26:12.931Z,143.07
2019-02-02T14:28:50.471Z,138.70
2019-02-02T14:31:28.015Z,137.20
2019-02-02T14:34:05.545Z,124.23
2019-02-02T14:36:43.082Z,135.23
2019-02-02T14:39:20.581Z,130.87
2019-02-02T14:41:58.127Z,155.40
2019-02-02T14:44:35.653Z,138.77
2019-02-02T14:47:13.173Z,137.80
2019-02-02T14:49:50.718Z,141.50
2019-02-02T14:52:28.278Z,125.57
2019-02-02T14:55:05.894Z,129.47
2019-02-02T14:57:43.431Z,142.47
2019-02-02T15:00:26.504Z,139.77
2019-02-02T15:03:04.133Z,142.80
2019-02-02T15:05:43.337Z,117.17
2019-02-02T15:08:19.353Z,123.47
2019-02-02T15:10:57.151Z,109.57
2019-02-02T15:13:34.655Z,119.00
2019-02-02T15:16:12.402Z,108.03
2019-02-02T15:18:49.932Z,109.93
2019-02-02T15:21:27.517Z,111.10
2019-02-02T15:24:05.835Z,98.87
2019-02-02T15:26:42.608Z,106.97
2019-02-02T15:29:20.104Z,106.67
2019-02-02T15:31:57.706Z,104.23
2019-02-02T15:34:35.222Z,103.67
2019-02-02T15:37:12.769Z,122.87
2019-02-02T15:39:50.321Z,130.23
2019-02-02T15:42:27.984Z,108.07
2019-02-02T15:45:05.557Z,139.60
2019-02-02T15:47:43.054Z,115.50
2019-02-02T15:50:20.718Z,119.80
2019-02-02T15:52:58.257Z,135.57
2019-02-02T15:55:35.796Z,126.40
2019-02-02T15:58:13.320Z,122.30
2019-02-02T16:00:50.882Z,120.93
2019-02-02T16:03:28.451Z,105.17
2019-02-02T16:06:05.998Z,109.87
2019-02-02T16:08:43.525Z,97.97
2019-02-02T16:11:21.094Z,108.73
2019-02-02T16:13:58.635Z,95.83
2019-02-02T16:16:36.206Z,127.50
2019-02-02T16:19:13.737Z,114.87
2019-02-02T16:21:51.266Z,103.40
2019-02-02T16:24:28.853Z,99.03
2019-02-02T16:27:06.406Z,113.43
2019-02-02T16:29:44.023Z,122.67
2019-02-02T16:32:25.348Z,115.40
2019-02-02T16:35:03.540Z,117.50
2019-02-02T16:37:41.409Z,127.03
2019-02-02T16:40:22.349Z,124.57
2019-02-02T16:43:00.245Z,133.23
2019-02-02T16:45:38.467Z,124.80
2019-02-02T16:48:16.859Z,145.90
2019-02-02T16:50:56.861Z,133.90
2019-02-02T16:53:33.261Z,109.33
2019-02-02T16:56:11.115Z,125.97
2019-02-02T16:58:48.823Z,98.07
2019-02-02T17:01:26.540Z,139.43
2019-02-02T17:04:15.324Z,121.80
2019-02-02T17:06:43.086Z,107.00
2019-02-02T17:09:20.812Z,95.47
2019-02-02T17:12:05.767Z,131.43
2019-02-02T17:14:43.333Z,100.20
2019-02-02T17:17:21.111Z,99.00
2019-02-02T17:19:59.004Z,107.07
2019-02-02T17:22:36.605Z,116.30
2019-02-02T17:25:17.708Z,117.47
2019-02-02T17:27:55.447Z,103.27
2019-02-02T17:30:33.298Z,121.77
2019-02-02T17:33:14.904Z,99.93
2019-02-02T17:35:56.627Z,92.83
2019-02-02T17:38:34.210Z,110.13
2019-02-02T17:41:11.954Z,108.07
2019-02-02T17:43:49.669Z,99.73
2019-02-02T17:46:27.387Z,98.93
2019-02-02T17:49:04.964Z,98.47
2019-02-02T17:51:42.514Z,100.30
2019-02-02T17:54:20.035Z,109.37
2019-02-02T17:56:57.562Z,102.97
2019-02-02T17:59:35.097Z,92.10
2019-02-02T18:02:12.659Z,109.63
2019-02-02T18:04:50.170Z,92.63
2019-02-02T18:07:27.695Z,100.50
2019-02-02T18:10:05.229Z,110.20
2019-02-02T18:12:42.785Z,112.90
2019-02-02T18:15:20.437Z,102.60
2019-02-02T18:17:57.968Z,98.00
2019-02-02T18:20:35.505Z,97.90
2019-02-02T18:23:13.101Z,98.47
2019-02-02T18:25:50.634Z,90.93
2019-02-02T18:28:28.184Z,108.43
2019-02-02T18:31:05.699Z,116.77
2019-02-02T18:33:43.239Z,114.97
2019-02-02T18:36:20.873Z,123.20
2019-02-02T18:38:58.497Z,115.80
2019-02-02T18:41:36.012Z,107.90
2019-02-02T18:44:13.556Z,107.13
2019-02-02T18:46:51.098Z,99.70
2019-02-02T18:49:28.598Z,106.50
2019-02-02T18:52:06.329Z,99.40
2019-02-02T18:54:43.684Z,99.30
2019-02-02T18:57:21.209Z,108.77
2019-02-02T18:59:58.722Z,110.80
2019-02-02T19:02:36.420Z,101.30
2019-02-02T19:05:14.539Z,104.27
2019-02-02T19:07:53.637Z,105.23
2019-02-02T19:10:34.689Z,94.90
2019-02-02T19:13:15.588Z,107.90
2019-02-02T19:15:53.633Z,104.07
2019-02-02T19:18:32.351Z,105.00
2019-02-02T19:21:10.917Z,94.23
2019-02-02T19:23:48.987Z,93.83
2019-02-02T19:26:28.314Z,106.30
2019-02-02T19:29:07.013Z,101.47
2019-02-02T19:31:45.249Z,97.53
2019-02-02T19:34:23.777Z,99.40
2019-02-02T19:37:01.888Z,116.07
2019-02-02T19:39:40.014Z,103.10
2019-02-02T19:42:18.448Z,89.40
2019-02-02T19:44:56.847Z,91.23
2019-02-02T19:47:35.434Z,87.60
2019-02-02T19:50:18.154Z,88.63
2019-02-02T19:52:56.677Z,93.73
2019-02-02T19:55:34.896Z,97.33
2019-02-02T19:58:12.439Z,97.33
2019-02-02T20:00:50.516Z,93.50
2019-02-02T20:03:28.462Z,100.20
2019-02-02T20:06:06.260Z,87.90
2019-02-02T20:08:44.234Z,115.97
2019-02-02T20:11:21.955Z,101.67
2019-02-02T20:13:59.854Z,102.67
2019-02-02T20:16:37.635Z,101.70
2019-02-02T20:19:15.757Z,93.50
2019-02-02T20:21:53.721Z,100.43
2019-02-02T20:24:31.787Z,83.40
2019-02-02T20:27:09.653Z,91.20
2019-02-02T20:29:47.662Z,95.97
2019-02-02T20:32:25.928Z,87.27
2019-02-02T20:35:03.635Z,95.63
2019-02-02T20:37:41.485Z,93.23
2019-02-02T20:40:25.991Z,88.43
2019-02-02T20:43:04.355Z,99.43
2019-02-02T20:45:42.457Z,85.80
2019-02-02T20:48:22.806Z,82.77
2019-02-02T20:51:01.354Z,84.90
2019-02-02T20:53:39.935Z,82.77
2019-02-02T20:56:17.891Z,82.87
2019-02-02T20:58:56.240Z,88.63
2019-02-02T21:01:34.532Z,84.20
2019-02-02T21:04:12.833Z,88.57
2019-02-02T21:06:50.959Z,86.70
2019-02-02T21:09:29.305Z,84.70
2019-02-02T21:12:07.348Z,86.87
2019-02-02T21:14:45.487Z,82.23
2019-02-02T21:17:23.862Z,92.60
2019-02-02T21:20:01.655Z,79.40
2019-02-02T21:22:39.953Z,96.77
2019-02-02T21:25:19.823Z,85.50
2019-02-02T21:27:57.728Z,85.13
2019-02-02T21:30:37.916Z,89.27
2019-02-02T21:33:15.866Z,88.37
2019-02-02T21:36:03.673Z,87.37
2019-02-02T21:38:32.118Z,85.53
2019-02-02T21:41:11.719Z,88.00
2019-02-02T21:43:50.106Z,80.13
2019-02-02T21:46:28.191Z,83.73
2019-02-02T21:49:06.239Z,90.57
2019-02-02T21:51:44.441Z,84.40
2019-02-02T21:54:25.854Z,87.17
2019-02-02T21:57:01.804Z,97.93
2019-02-02T21:59:40.465Z,94.67
2019-02-02T22:02:18.745Z,98.90
2019-02-02T22:04:56.614Z,96.53
2019-02-02T22:07:34.565Z,93.70
2019-02-02T22:10:13.251Z,89.60
2019-02-02T22:12:52.919Z,93.43
2019-02-02T22:15:28.972Z,86.47
2019-02-02T22:18:07.017Z,92.30
2019-02-02T22:20:44.722Z,95.10
2019-02-02T22:23:22.538Z,96.00
2019-02-02T22:26:00.395Z,90.00
2019-02-02T22:28:37.940Z,96.33
2019-02-02T22:31:15.460Z,92.10
2019-02-02T22:33:53.001Z,89.97
2019-02-02T22:36:30.505Z,91.03
2019-02-02T22:39:10.113Z,86.20
2019-02-02T22:41:47.524Z,95.93
2019-02-02T22:44:25.160Z,97.37
2019-02-02T22:47:02.589Z,105.70
2019-02-02T22:49:40.127Z,100.37
2019-02-02T22:52:17.640Z,107.77
2019-02-02T22:54:55.196Z,108.90
2019-02-02T22:57:32.709Z,106.30
2019-02-02T23:01:08.943Z,110.17
2019-02-02T23:04:35.502Z,102.10
2019-02-02T23:07:56.019Z,93.00
2019-02-02T23:11:27.413Z,100.00
2019-02-02T23:14:52.881Z,93.87
2019-02-02T23:17:30.409Z,92.03
2019-02-02T23:20:08.877Z,90.07
2019-02-02T23:22:46.391Z,106.27
2019-02-02T23:25:23.953Z,97.57
2019-02-02T23:28:01.465Z,95.97
2019-02-02T23:30:39.001Z,97.43
2019-02-02T23:33:16.497Z,94.37
2019-02-02T23:35:54.295Z,103.90
2019-02-02T23:38:31.816Z,100.67
2019-02-02T23:41:09.349Z,85.03
2019-02-02T23:43:46.879Z,88.33
2019-02-02T23:46:24.416Z,98.20
2019-02-02T23:49:01.953Z,96.90
2019-02-02T23:51:39.457Z,95.23
2019-02-02T23:54:16.989Z,101.77
2019-02-02T23:56:54.505Z,99.70
2019-02-02T23:59:35.155Z,94.33
